Time;durP1;ratioP1;P1;durP2;ratioP2;P2;SDS_P1;SDS_P2;PMS_P1;PMS_P2;Temp;Humidity;BMP_temperature;BMP_pressure;BME280_temperature;BME280_humidity;BME280_pressure;Samples;Min_cycle;Max_cycle;Signal;HPM_P1;HPM_P2
2021/09/23 00:00:04;;;;;;;5.05;4.40;;;19.10;61.20;;;;;;5035804;28;20180;-70
2021/09/23 00:05:17;;;;;;;4.40;4.03;;;19.10;61.30;;;;;;5035449;28;20590;-70
2021/09/23 00:07:43;;;;;;;4.38;3.80;;;19.00;61.20;;;;;;5036028;28;20263;-73
2021/09/23 00:10:10;;;;;;;4.47;3.95;;;19.10;61.30;;;;;;5034821;28;20175;-70
2021/09/23 00:12:36;;;;;;;4.20;3.80;;;19.00;61.20;;;;;;5035449;28;20598;-70
2021/09/23 00:15:02;;;;;;;4.93;4.22;;;19.00;61.30;;;;;;5035311;28;20171;-70
2021/09/23 00:17:28;;;;;;;4.38;4.03;;;19.00;61.30;;;;;;5035120;28;20167;-70
2021/09/23 00:19:54;;;;;;;4.60;4.20;;;19.00;61.30;;;;;;5034124;28;20179;-74
2021/09/23 00:22:19;;;;;;;4.60;4.20;;;19.00;61.20;;;;;;5035500;28;20172;-71
2021/09/23 00:24:45;;;;;;;5.07;4.07;;;19.00;61.30;;;;;;5034691;28;20697;-72
2021/09/23 00:27:10;;;;;;;4.63;4.22;;;19.00;61.30;;;;;;5035263;28;20204;-70
2021/09/23 00:29:36;;;;;;;4.75;4.32;;;19.00;61.30;;;;;;5035507;28;20266;-70
2021/09/23 00:32:02;;;;;;;4.43;4.03;;;19.00;61.30;;;;;;5034526;28;20263;-70
2021/09/23 00:34:27;;;;;;;4.30;3.95;;;19.00;61.30;;;;;;5035401;28;20183;-70
2021/09/23 00:36:53;;;;;;;4.35;3.85;;;19.00;61.40;;;;;;5035008;28;20176;-71
2021/09/23 00:39:21;;;;;;;5.25;4.35;;;19.00;61.30;;;;;;5034649;28;20172;-70
2021/09/23 00:41:47;;;;;;;4.22;3.83;;;19.00;61.40;;;;;;5035191;28;20313;-73
2021/09/23 00:44:14;;;;;;;4.40;4.00;;;19.00;61.40;;;;;;5034851;28;20255;-72
2021/09/23 00:46:39;;;;;;;4.40;4.00;;;19.00;61.40;;;;;;5034567;28;20230;-70
2021/09/23 00:49:05;;;;;;;3.95;3.65;;;19.00;61.40;;;;;;5034751;28;20626;-71
2021/09/23 00:51:30;;;;;;;4.25;3.95;;;19.00;61.40;;;;;;5034578;28;20225;-70
2021/09/23 00:53:57;;;;;;;4.32;3.95;;;19.00;61.40;;;;;;5034615;28;20176;-71
2021/09/23 00:56:22;;;;;;;4.72;3.90;;;19.00;61.40;;;;;;5034643;28;20176;-70
2021/09/23 00:58:48;;;;;;;3.97;3.67;;;19.00;61.40;;;;;;5034044;28;20176;-69
2021/09/23 01:01:14;;;;;;;4.18;3.60;;;19.00;61.50;;;;;;5034899;28;20186;-70
2021/09/23 01:03:39;;;;;;;4.13;3.72;;;19.00;61.50;;;;;;5034640;28;20164;-70
2021/09/23 01:06:05;;;;;;;5.00;4.45;;;18.90;61.40;;;;;;5033702;28;20219;-71
2021/09/23 01:08:30;;;;;;;4.22;3.88;;;18.90;61.40;;;;;;5034568;28;20534;-71
2021/09/23 01:10:56;;;;;;;4.00;3.70;;;18.90;61.50;;;;;;5034387;28;20180;-69
2021/09/23 01:13:22;;;;;;;4.53;4.13;;;18.90;61.40;;;;;;5033624;28;20224;-70
2021/09/23 01:15:48;;;;;;;4.30;3.80;;;18.90;61.50;;;;;;5034512;28;20266;-70
2021/09/23 01:18:14;;;;;;;4.53;4.18;;;18.90;61.40;;;;;;5034607;28;20261;-72
2021/09/23 01:20:43;;;;;;;4.53;3.83;;;18.90;61.40;;;;;;5016036;28;20201;-74
2021/09/23 01:23:09;;;;;;;4.38;3.97;;;18.90;61.50;;;;;;5034134;28;20180;-71
2021/09/23 01:25:34;;;;;;;4.72;4.28;;;18.90;61.50;;;;;;5034027;28;20584;-71
2021/09/23 01:28:00;;;;;;;4.85;4.10;;;18.90;61.50;;;;;;5033271;28;20176;-69
2021/09/23 01:30:25;;;;;;;4.53;4.22;;;18.90;61.50;;;;;;5034357;28;20262;-69
2021/09/23 01:32:51;;;;;;;4.13;3.83;;;18.90;61.60;;;;;;5033469;28;20168;-70
2021/09/23 01:35:17;;;;;;;4.50;4.10;;;18.90;61.50;;;;;;5033594;28;20190;-70
2021/09/23 01:37:42;;;;;;;4.03;3.72;;;18.90;61.50;;;;;;5034112;28;20172;-72
2021/09/23 01:40:09;;;;;;;4.70;4.20;;;18.90;61.50;;;;;;5033693;28;20577;-71
2021/09/23 01:42:34;;;;;;;4.63;4.22;;;18.90;61.50;;;;;;5033283;28;20176;-73
2021/09/23 01:45:01;;;;;;;4.28;3.88;;;18.90;61.50;;;;;;5033785;28;20218;-70
2021/09/23 01:47:27;;;;;;;4.90;4.28;;;18.90;61.50;;;;;;5034005;28;20221;-70
2021/09/23 01:49:52;;;;;;;4.55;4.15;;;18.90;61.50;;;;;;5033149;28;20172;-71
2021/09/23 01:52:18;;;;;;;4.60;4.20;;;18.80;61.40;;;;;;5033801;28;20172;-70
2021/09/23 01:54:43;;;;;;;4.75;4.07;;;18.90;61.50;;;;;;5033084;28;20171;-70
2021/09/23 01:57:09;;;;;;;4.50;4.10;;;18.80;61.40;;;;;;5033589;28;20258;-69
2021/09/23 01:59:34;;;;;;;4.85;4.40;;;18.80;61.40;;;;;;5033685;28;20175;-70
2021/09/23 02:02:00;;;;;;;4.50;4.10;;;18.80;61.50;;;;;;5032819;28;20186;-70
2021/09/23 02:04:25;;;;;;;4.68;4.22;;;18.80;61.50;;;;;;5033629;28;20176;-70
2021/09/23 02:06:51;;;;;;;4.65;4.25;;;18.80;61.50;;;;;;5033451;28;20238;-71
2021/09/23 02:09:16;;;;;;;5.15;4.10;;;18.80;61.50;;;;;;5032899;28;20534;-69
2021/09/23 02:11:42;;;;;;;5.40;4.63;;;18.80;61.50;;;;;;5033294;28;20187;-70
2021/09/23 02:14:07;;;;;;;5.22;4.57;;;18.80;61.50;;;;;;5033028;28;20278;-70
2021/09/23 02:16:33;;;;;;;4.68;4.28;;;18.80;61.50;;;;;;5032780;28;20245;-70
2021/09/23 02:18:58;;;;;;;4.70;4.30;;;18.80;61.60;;;;;;5033065;28;20172;-72
2021/09/23 02:21:24;;;;;;;5.28;4.78;;;18.80;61.60;;;;;;5033331;28;20163;-71
2021/09/23 02:23:50;;;;;;;4.55;4.10;;;18.80;61.60;;;;;;5032382;28;20537;-72
2021/09/23 02:26:16;;;;;;;4.40;4.10;;;18.80;61.60;;;;;;5033309;28;20294;-70
2021/09/23 02:28:41;;;;;;;4.57;4.18;;;18.80;61.60;;;;;;5033458;28;20255;-70
2021/09/23 02:31:07;;;;;;;5.00;4.50;;;18.80;61.60;;;;;;5032365;28;20200;-69
2021/09/23 02:33:33;;;;;;;5.20;4.65;;;18.80;62.40;;;;;;5033278;28;20247;-70
2021/09/23 02:35:59;;;;;;;4.50;4.10;;;18.70;61.60;;;;;;5032700;28;20690;-70
2021/09/23 02:38:25;;;;;;;5.65;4.63;;;18.80;61.60;;;;;;5032419;28;20171;-70
2021/09/23 02:40:50;;;;;;;5.78;4.68;;;18.80;61.60;;;;;;5032773;28;20208;-73
2021/09/23 02:43:16;;;;;;;4.35;3.95;;;18.80;61.70;;;;;;5032301;28;20176;-70
2021/09/23 02:45:42;;;;;;;4.43;4.03;;;18.80;61.70;;;;;;5032337;28;20285;-71
2021/09/23 02:48:07;;;;;;;5.55;4.28;;;18.80;61.70;;;;;;5032693;28;20179;-71
2021/09/23 02:50:33;;;;;;;4.80;4.40;;;18.70;61.60;;;;;;5033050;28;20176;-70
2021/09/23 02:52:58;;;;;;;4.18;3.78;;;18.70;61.60;;;;;;5031974;28;20179;-70
2021/09/23 02:55:24;;;;;;;5.32;4.82;;;18.80;61.70;;;;;;5032920;28;20183;-68
2021/09/23 02:57:52;;;;;;;4.93;4.43;;;18.80;61.70;;;;;;5032931;28;20251;-70
2021/09/23 03:00:18;;;;;;;4.93;4.53;;;18.70;61.60;;;;;;5032370;28;20187;-70
2021/09/23 03:02:43;;;;;;;5.07;4.57;;;18.70;61.60;;;;;;5032879;28;20218;-70
2021/09/23 03:05:09;;;;;;;5.40;4.50;;;18.70;61.60;;;;;;5031765;28;20670;-71
2021/09/23 03:07:34;;;;;;;5.22;4.65;;;18.70;61.70;;;;;;5032543;28;20267;-70
2021/09/23 03:10:00;;;;;;;5.90;5.03;;;18.70;61.60;;;;;;5032340;28;20174;-70
2021/09/23 03:12:25;;;;;;;5.35;4.53;;;18.70;61.70;;;;;;5031702;28;20558;-70
2021/09/23 03:14:51;;;;;;;5.22;4.72;;;18.70;61.70;;;;;;5032600;28;20183;-70
2021/09/23 03:17:16;;;;;;;5.28;4.78;;;18.70;61.60;;;;;;5032711;28;20184;-71
2021/09/23 03:19:42;;;;;;;4.97;4.53;;;18.70;61.70;;;;;;5032092;28;20608;-71
2021/09/23 03:22:09;;;;;;;4.85;4.38;;;18.70;61.70;;;;;;5032392;28;20168;-73
2021/09/23 03:24:35;;;;;;;4.78;4.38;;;18.70;61.70;;;;;;5032535;28;20252;-71
2021/09/23 03:27:00;;;;;;;5.47;4.07;;;18.70;61.70;;;;;;5031790;28;20615;-70
2021/09/23 03:29:26;;;;;;;5.45;4.95;;;18.70;61.70;;;;;;5031564;28;20214;-70
2021/09/23 03:31:51;;;;;;;5.57;4.63;;;18.70;61.70;;;;;;5032296;28;20168;-70
2021/09/23 03:34:17;;;;;;;5.75;4.85;;;18.60;61.60;;;;;;5031805;28;20306;-71
2021/09/23 03:36:42;;;;;;;5.53;4.38;;;18.70;61.70;;;;;;5032700;28;20195;-71
2021/09/23 03:39:08;;;;;;;6.45;4.90;;;18.70;61.70;;;;;;5032080;28;20234;-72
2021/09/23 03:41:33;;;;;;;5.75;4.68;;;18.70;61.70;;;;;;5031990;28;20164;-74
2021/09/23 03:43:59;;;;;;;5.70;4.72;;;18.70;61.70;;;;;;5032407;28;20180;-72
2021/09/23 03:46:25;;;;;;;5.60;5.07;;;18.70;61.70;;;;;;5032719;28;20251;-72
2021/09/23 03:48:50;;;;;;;6.82;4.75;;;18.70;61.70;;;;;;5031728;28;20176;-70
2021/09/23 03:51:16;;;;;;;5.55;4.40;;;18.60;61.70;;;;;;5032612;28;20222;-72
2021/09/23 03:53:42;;;;;;;5.60;4.95;;;18.60;61.70;;;;;;5032198;28;20174;-74
2021/09/23 03:56:07;;;;;;;6.60;4.90;;;18.60;61.70;;;;;;5034355;28;20536;-72
2021/09/23 03:58:33;;;;;;;5.20;4.75;;;18.60;61.60;;;;;;5036157;28;20310;-72
2021/09/23 04:00:58;;;;;;;5.43;4.93;;;18.60;61.70;;;;;;5035491;28;20176;-69
2021/09/23 04:03:24;;;;;;;6.18;4.60;;;18.60;61.80;;;;;;5035372;28;20183;-71
2021/09/23 04:05:50;;;;;;;4.80;4.30;;;18.60;61.70;;;;;;5035556;28;20203;-73
2021/09/23 04:08:16;;;;;;;7.82;4.97;;;18.60;61.70;;;;;;5035185;28;20180;-74
2021/09/23 04:10:42;;;;;;;5.80;4.70;;;18.60;61.70;;;;;;5035895;28;20184;-72
2021/09/23 04:13:07;;;;;;;6.13;4.70;;;18.60;61.70;;;;;;5035371;28;20236;-72
2021/09/23 04:15:33;;;;;;;6.70;5.18;;;18.60;61.80;;;;;;5034859;28;20535;-72
2021/09/23 04:17:58;;;;;;;6.05;5.25;;;18.60;61.70;;;;;;5035336;28;20175;-73
2021/09/23 04:20:24;;;;;;;5.25;4.63;;;18.60;61.80;;;;;;5035342;28;20180;-73
2021/09/23 04:22:49;;;;;;;6.55;5.28;;;18.60;61.80;;;;;;5034300;28;20229;-74
2021/09/23 04:25:15;;;;;;;7.10;4.90;;;18.60;61.80;;;;;;5035246;28;20682;-71
2021/09/23 04:27:40;;;;;;;6.88;5.28;;;18.60;61.80;;;;;;5035514;28;20171;-72
2021/09/23 04:30:06;;;;;;;5.65;4.72;;;18.60;61.70;;;;;;5034417;28;20172;-71
2021/09/23 04:32:31;;;;;;;5.47;4.88;;;18.60;61.80;;;;;;5035179;28;20245;-71
2021/09/23 04:34:57;;;;;;;5.43;4.57;;;18.60;61.80;;;;;;5034924;28;20179;-72
2021/09/23 04:37:22;;;;;;;5.88;4.97;;;18.60;61.80;;;;;;5034370;28;20190;-71
2021/09/23 04:39:48;;;;;;;5.30;4.70;;;18.60;61.80;;;;;;5034690;28;20662;-75
2021/09/23 04:42:13;;;;;;;5.68;4.75;;;18.60;61.80;;;;;;5035156;28;20172;-72
2021/09/23 04:44:39;;;;;;;5.72;4.63;;;18.60;61.80;;;;;;5034216;28;20176;-73
2021/09/23 04:47:04;;;;;;;6.40;5.40;;;18.60;61.80;;;;;;5034654;28;20199;-72
2021/09/23 04:49:31;;;;;;;7.10;5.53;;;18.60;61.80;;;;;;5035060;28;20564;-72
2021/09/23 04:51:56;;;;;;;5.65;4.93;;;18.50;61.80;;;;;;5033847;28;20176;-73
2021/09/23 04:54:22;;;;;;;5.82;4.43;;;18.50;61.80;;;;;;5035511;28;20168;-71
2021/09/23 04:56:47;;;;;;;6.15;4.95;;;18.60;61.80;;;;;;5034763;28;20168;-72
2021/09/23 04:59:13;;;;;;;5.35;4.72;;;18.50;61.90;;;;;;5034260;28;20175;-71
2021/09/23 05:01:39;;;;;;;8.02;5.60;;;18.50;61.80;;;;;;5034906;28;20176;-71
2021/09/23 05:04:04;;;;;;;6.15;5.20;;;18.50;61.80;;;;;;5034481;28;20172;-72
2021/09/23 05:06:30;;;;;;;5.40;4.50;;;18.50;61.80;;;;;;5031614;28;20215;-72
2021/09/23 05:08:55;;;;;;;6.05;5.10;;;18.50;61.80;;;;;;5034531;28;20172;-72
2021/09/23 05:11:21;;;;;;;5.68;4.93;;;18.50;61.80;;;;;;5034564;28;20202;-70
2021/09/23 05:13:46;;;;;;;6.50;5.05;;;18.50;61.80;;;;;;5033633;28;20228;-72
2021/09/23 05:16:12;;;;;;;8.02;5.50;;;18.50;61.80;;;;;;5034254;28;20187;-72
2021/09/23 05:18:37;;;;;;;6.22;5.05;;;18.50;61.90;;;;;;5034054;28;20172;-72
2021/09/23 05:21:03;;;;;;;8.13;4.90;;;18.50;61.90;;;;;;5034186;28;20171;-74
2021/09/23 05:23:28;;;;;;;6.68;5.68;;;18.50;61.80;;;;;;5034599;28;20572;-73
2021/09/23 05:25:54;;;;;;;5.85;5.03;;;18.50;61.90;;;;;;5033256;28;20216;-72
2021/09/23 05:28:19;;;;;;;5.63;5.13;;;18.50;61.90;;;;;;5034454;28;20696;-71
2021/09/23 05:30:45;;;;;;;7.35;5.15;;;18.50;61.90;;;;;;5034182;28;20201;-71
2021/09/23 05:33:12;;;;;;;6.15;5.10;;;18.50;61.80;;;;;;5033099;28;20627;-71
2021/09/23 05:35:37;;;;;;;6.97;5.25;;;18.50;61.90;;;;;;5034048;28;20202;-72
2021/09/23 05:38:03;;;;;;;6.38;5.55;;;18.50;61.90;;;;;;5033986;28;20529;-74
2021/09/23 05:40:29;;;;;;;7.82;5.25;;;18.50;61.90;;;;;;5033412;28;20176;-75
2021/09/23 05:42:54;;;;;;;6.38;5.63;;;18.50;61.80;;;;;;5033456;28;20179;-72
2021/09/23 05:45:19;;;;;;;5.53;5.00;;;18.50;61.90;;;;;;5033893;28;20250;-72
2021/09/23 05:47:46;;;;;;;6.07;5.38;;;18.50;61.90;;;;;;5033205;28;20200;-72
2021/09/23 05:50:12;;;;;;;6.35;4.72;;;18.50;61.90;;;;;;5033435;28;20179;-72
2021/09/23 05:52:38;;;;;;;5.82;5.00;;;18.50;61.90;;;;;;5033994;28;20176;-72
2021/09/23 05:55:04;;;;;;;7.63;5.35;;;18.50;61.90;;;;;;5032591;28;20178;-71
2021/09/23 05:57:34;;;;;;;6.47;5.53;;;18.50;61.80;;;;;;5033908;28;20259;-71
2021/09/23 06:00:00;;;;;;;6.88;5.32;;;18.50;61.90;;;;;;5032203;28;20541;-71
2021/09/23 06:02:26;;;;;;;5.13;4.63;;;18.50;61.90;;;;;;5033353;28;20175;-71
2021/09/23 06:04:51;;;;;;;7.45;5.65;;;18.50;61.90;;;;;;5032971;28;20558;-72
2021/09/23 06:07:17;;;;;;;5.68;4.80;;;18.50;61.90;;;;;;5033727;28;20184;-71
2021/09/23 06:09:42;;;;;;;6.85;4.80;;;18.50;61.90;;;;;;5033044;28;20172;-71
2021/09/23 06:12:08;;;;;;;6.30;4.97;;;18.50;61.90;;;;;;5033197;28;20172;-71
2021/09/23 06:14:34;;;;;;;6.10;5.25;;;18.50;61.90;;;;;;5033561;28;20223;-70
2021/09/23 06:16:59;;;;;;;5.75;4.78;;;18.50;61.90;;;;;;5032360;28;20175;-72
2021/09/23 06:19:24;;;;;;;6.05;4.97;;;18.50;61.90;;;;;;5033081;28;20176;-71
2021/09/23 06:21:50;;;;;;;7.78;5.40;;;18.50;61.90;;;;;;5033185;28;20174;-74
2021/09/23 06:24:15;;;;;;;5.43;4.93;;;18.50;61.90;;;;;;5032615;28;20535;-71
2021/09/23 06:26:41;;;;;;;5.18;4.63;;;18.50;61.80;;;;;;5033162;28;20243;-72
2021/09/23 06:29:06;;;;;;;5.00;4.50;;;18.50;61.90;;;;;;5032446;28;20168;-69
2021/09/23 06:31:33;;;;;;;5.97;4.63;;;18.50;61.80;;;;;;5033164;28;20183;-69
2021/09/23 06:33:59;;;;;;;6.38;4.90;;;18.50;61.80;;;;;;5032766;28;20172;-71
2021/09/23 06:36:24;;;;;;;6.03;4.60;;;18.50;61.80;;;;;;5032686;28;20599;-70
2021/09/23 06:38:50;;;;;;;5.93;4.97;;;18.60;61.90;;;;;;5032770;28;20176;-72
2021/09/23 06:41:15;;;;;;;5.82;4.88;;;18.60;61.80;;;;;;5033008;28;20653;-73
2021/09/23 06:43:41;;;;;;;5.82;5.10;;;18.60;61.70;;;;;;5032434;28;20206;-72
2021/09/23 06:46:09;;;;;;;5.57;4.90;;;18.60;61.60;;;;;;5032570;28;20674;-73
2021/09/23 06:48:35;;;;;;;5.55;5.03;;;18.60;61.70;;;;;;5032849;28;20745;-72
2021/09/23 06:51:00;;;;;;;6.20;5.35;;;18.60;61.60;;;;;;5032334;28;20175;-71
2021/09/23 06:53:26;;;;;;;6.03;4.88;;;18.60;61.60;;;;;;5032979;28;20222;-72
2021/09/23 06:55:51;;;;;;;5.18;4.40;;;18.60;61.70;;;;;;5032692;28;20171;-70
2021/09/23 06:58:17;;;;;;;4.88;4.47;;;18.60;61.60;;;;;;5032295;28;20263;-72
2021/09/23 07:00:42;;;;;;;5.43;4.93;;;18.60;61.60;;;;;;5032917;28;20172;-71
2021/09/23 07:03:08;;;;;;;5.30;4.80;;;18.70;61.60;;;;;;5032433;28;20218;-72
2021/09/23 07:05:33;;;;;;;6.10;5.20;;;18.70;61.70;;;;;;5032073;28;20207;-72
2021/09/23 07:07:59;;;;;;;5.10;4.47;;;18.60;61.60;;;;;;5032402;28;20215;-73
2021/09/23 07:10:24;;;;;;;5.85;5.28;;;18.60;61.60;;;;;;5032901;28;20187;-72
2021/09/23 07:12:50;;;;;;;4.93;4.32;;;18.60;61.70;;;;;;5031552;28;20231;-72
2021/09/23 07:15:15;;;;;;;5.22;4.40;;;18.60;61.70;;;;;;5032762;28;20179;-72
2021/09/23 07:17:41;;;;;;;5.28;4.60;;;18.60;61.70;;;;;;5032614;28;20306;-74
2021/09/23 07:20:07;;;;;;;7.07;4.85;;;18.60;61.80;;;;;;5031826;28;20635;-74
2021/09/23 07:22:32;;;;;;;5.32;4.82;;;18.60;61.80;;;;;;5032780;28;20179;-75
2021/09/23 07:24:58;;;;;;;5.25;4.75;;;18.70;61.80;;;;;;5032236;28;20341;-73
2021/09/23 07:27:24;;;;;;;5.25;4.70;;;18.70;61.80;;;;;;5031771;28;20709;-72
2021/09/23 07:29:49;;;;;;;5.55;5.03;;;18.70;61.80;;;;;;5033405;28;20258;-72
2021/09/23 07:32:15;;;;;;;6.90;5.07;;;18.70;61.70;;;;;;5035812;28;20178;-71
2021/09/23 07:34:41;;;;;;;5.97;5.40;;;18.70;61.70;;;;;;5036629;28;20176;-73
2021/09/23 07:37:07;;;;;;;5.25;4.75;;;18.80;61.60;;;;;;5036023;28;20604;-72
2021/09/23 07:39:32;;;;;;;6.03;4.55;;;18.80;61.40;;;;;;5035529;28;20234;-73
2021/09/23 07:41:58;;;;;;;6.00;4.32;;;18.80;61.30;;;;;;5036140;28;20186;-74
2021/09/23 07:44:24;;;;;;;5.50;5.00;;;18.80;61.40;;;;;;5036350;28;20539;-72
2021/09/23 07:46:51;;;;;;;5.80;4.82;;;18.80;61.50;;;;;;5035088;28;20269;-73
2021/09/23 07:49:17;;;;;;;4.82;4.32;;;18.80;61.60;;;;;;5036473;28;20180;-73
2021/09/23 07:51:43;;;;;;;4.88;4.18;;;18.80;61.50;;;;;;5036272;28;20198;-71
2021/09/23 07:54:08;;;;;;;6.78;4.90;;;18.80;61.50;;;;;;5035255;28;20532;-68
2021/09/23 07:56:34;;;;;;;5.90;5.22;;;18.80;61.60;;;;;;5036051;28;20167;-66
2021/09/23 07:58:59;;;;;;;8.40;5.00;;;18.80;61.60;;;;;;5035658;28;20225;-72
2021/09/23 08:01:25;;;;;;;6.72;4.93;;;18.90;61.90;;;;;;5035075;28;20518;-72
2021/09/23 08:03:53;;;;;;;6.38;5.18;;;18.90;61.70;;;;;;5035498;28;20171;-73
2021/09/23 08:06:18;;;;;;;12.68;9.63;;;18.90;61.60;;;;;;5035715;28;20678;-71
2021/09/23 08:08:44;;;;;;;11.75;10.05;;;19.00;61.90;;;;;;5035304;28;20263;-69
2021/09/23 08:11:09;;;;;;;10.70;8.85;;;19.00;61.90;;;;;;5035404;28;20267;-71
2021/09/23 08:13:35;;;;;;;9.85;8.85;;;19.00;61.90;;;;;;5035519;28;20285;-71
2021/09/23 08:16:00;;;;;;;10.23;8.35;;;19.10;61.90;;;;;;5034581;28;20178;-72
2021/09/23 08:18:26;;;;;;;9.82;8.73;;;19.20;61.90;;;;;;5035530;28;20175;-72
2021/09/23 08:20:51;;;;;;;10.75;8.43;;;19.10;62.00;;;;;;5035533;28;20635;-71
2021/09/23 08:23:18;;;;;;;9.40;8.40;;;19.20;62.00;;;;;;5034769;28;20270;-71
2021/09/23 08:25:44;;;;;;;9.23;8.20;;;19.20;62.10;;;;;;5035455;28;20204;-70
2021/09/23 08:28:11;;;;;;;9.90;7.78;;;19.30;62.20;;;;;;5035188;28;20203;-70
2021/09/23 08:30:36;;;;;;;9.35;7.65;;;19.30;62.40;;;;;;5034786;28;20176;-71
2021/09/23 08:33:02;;;;;;;8.82;7.18;;;19.30;62.40;;;;;;5035252;28;20188;-70
2021/09/23 08:35:28;;;;;;;10.57;7.45;;;19.30;62.70;;;;;;5035652;28;20176;-70
2021/09/23 08:37:53;;;;;;;11.30;7.75;;;19.30;62.50;;;;;;5034190;28;20183;-70
2021/09/23 08:40:19;;;;;;;9.32;7.03;;;19.40;62.60;;;;;;5035541;28;20187;-70
2021/09/23 08:42:45;;;;;;;8.25;6.80;;;19.40;62.60;;;;;;5034513;28;20172;-70
2021/09/23 08:45:12;;;;;;;8.63;7.25;;;19.40;62.60;;;;;;5034787;28;20579;-71
2021/09/23 08:47:37;;;;;;;7.22;6.20;;;19.50;62.70;;;;;;5035238;28;20230;-71
2021/09/23 08:50:04;;;;;;;7.22;6.07;;;19.50;62.60;;;;;;5034114;28;20176;-70
2021/09/23 08:52:30;;;;;;;8.05;6.22;;;19.50;62.70;;;;;;5035079;28;20226;-70
2021/09/23 08:54:55;;;;;;;7.05;5.38;;;19.40;62.80;;;;;;5034724;28;20674;-70
2021/09/23 08:57:21;;;;;;;9.95;5.97;;;19.40;63.00;;;;;;5033993;28;20517;-70
2021/09/23 08:59:46;;;;;;;5.75;4.93;;;19.50;62.90;;;;;;5034883;28;20168;-71
2021/09/23 09:02:26;;;;;;;7.22;6.03;;;19.50;62.90;;;;;;5034790;28;20171;-71
2021/09/23 09:04:52;;;;;;;6.63;5.95;;;19.60;62.80;;;;;;5033919;28;20179;-70
2021/09/23 09:07:25;;;;;;;6.35;5.45;;;19.60;62.60;;;;;;5034678;28;20182;-71
2021/09/23 09:10:20;;;;;;;7.22;5.25;;;19.60;62.50;;;;;;5034596;28;20180;-72
2021/09/23 09:12:46;;;;;;;5.68;5.07;;;19.60;62.50;;;;;;5033226;28;20234;-71
2021/09/23 09:15:12;;;;;;;7.10;5.45;;;19.60;62.70;;;;;;5036596;28;20746;-76
2021/09/23 09:17:37;;;;;;;6.03;4.90;;;19.50;62.80;;;;;;5038127;28;20555;-77
2021/09/23 09:20:04;;;;;;;7.18;5.43;;;19.50;62.90;;;;;;5033631;28;20179;-67
2021/09/23 09:22:31;;;;;;;8.98;5.70;;;19.50;63.20;;;;;;5034312;28;20263;-70
2021/09/23 09:25:08;;;;;;;8.45;5.75;;;19.40;63.40;;;;;;5033216;28;20259;-68
2021/09/23 09:27:43;;;;;;;8.15;6.28;;;19.50;63.50;;;;;;5034604;28;20172;-68
2021/09/23 09:30:14;;;;;;;7.25;5.53;;;19.50;63.60;;;;;;5034181;28;20172;-71
2021/09/23 09:32:57;;;;;;;8.55;4.88;;;19.50;63.70;;;;;;5033608;28;20176;-69
2021/09/23 09:35:26;;;;;;;6.72;4.57;;;19.50;63.80;;;;;;5034216;28;20214;-72
2021/09/23 09:37:52;;;;;;;5.32;4.65;;;19.50;63.60;;;;;;5034019;28;20188;-72
2021/09/23 09:40:20;;;;;;;7.18;4.93;;;19.50;63.50;;;;;;5033367;28;20547;-71
2021/09/23 09:42:47;;;;;;;7.68;4.32;;;19.50;63.50;;;;;;5034144;28;20187;-68
2021/09/23 09:45:17;;;;;;;4.90;4.35;;;19.60;63.30;;;;;;5034108;28;20290;-70
2021/09/23 09:47:43;;;;;;;5.53;5.00;;;19.50;63.30;;;;;;5033173;28;20199;-69
2021/09/23 09:50:11;;;;;;;5.70;5.00;;;19.60;63.30;;;;;;5033772;28;20196;-71
2021/09/23 09:52:36;;;;;;;6.50;4.30;;;19.70;63.20;;;;;;5033441;28;20268;-69
2021/09/23 09:55:06;;;;;;;5.15;4.25;;;19.80;63.00;;;;;;5033097;28;20254;-68
2021/09/23 09:57:31;;;;;;;5.38;3.78;;;19.80;63.00;;;;;;5033892;28;20183;-68
2021/09/23 09:59:59;;;;;;;4.97;4.05;;;19.80;62.90;;;;;;5032780;28;20184;-68
2021/09/23 10:02:28;;;;;;;5.45;4.10;;;19.80;62.80;;;;;;5032377;28;20180;-71
2021/09/23 10:04:58;;;;;;;4.40;3.95;;;19.90;62.80;;;;;;5033532;28;20186;-68
2021/09/23 10:07:25;;;;;;;6.63;4.13;;;20.00;62.80;;;;;;5047637;28;20235;-70
2021/09/23 10:09:50;;;;;;;4.90;4.07;;;20.00;62.70;;;;;;5050621;28;20171;-69
2021/09/23 10:12:16;;;;;;;4.43;4.00;;;20.00;62.80;;;;;;5033980;28;20175;-71
2021/09/23 10:14:42;;;;;;;5.65;4.20;;;20.00;62.70;;;;;;5051460;28;20155;-69
2021/09/23 10:17:07;;;;;;;5.85;3.70;;;19.90;62.80;;;;;;5034073;28;20191;-68
2021/09/23 10:19:33;;;;;;;5.90;4.20;;;19.90;63.00;;;;;;5051222;28;20198;-69
2021/09/23 10:21:58;;;;;;;4.55;3.80;;;19.90;63.10;;;;;;5050740;28;20175;-67
2021/09/23 10:24:24;;;;;;;4.07;3.72;;;19.90;63.20;;;;;;5051982;28;20163;-69
2021/09/23 10:26:49;;;;;;;6.28;3.70;;;19.90;63.30;;;;;;5034984;28;20565;-68
2021/09/23 10:29:15;;;;;;;5.53;3.88;;;19.90;63.20;;;;;;5034604;28;20167;-69
2021/09/23 10:31:43;;;;;;;5.43;4.20;;;19.90;63.40;;;;;;5035090;28;20714;-68
2021/09/23 10:34:11;;;;;;;4.25;3.67;;;19.80;63.50;;;;;;5052933;28;20229;-70
2021/09/23 10:36:38;;;;;;;8.27;4.22;;;19.80;63.60;;;;;;5051506;28;20199;-67
2021/09/23 10:39:05;;;;;;;5.05;3.97;;;19.80;63.60;;;;;;5034217;28;20242;-66
2021/09/23 10:41:31;;;;;;;4.47;3.85;;;19.80;63.70;;;;;;5052534;28;20189;-68
2021/09/23 10:43:56;;;;;;;3.70;3.40;;;19.70;63.70;;;;;;5050145;28;20182;-67
2021/09/23 10:46:26;;;;;;;3.58;3.28;;;19.70;63.90;;;;;;5052850;28;20207;-76
2021/09/23 10:48:52;;;;;;;5.32;3.80;;;19.70;64.10;;;;;;5052377;28;20244;-71
2021/09/23 10:51:18;;;;;;;3.53;3.22;;;19.60;64.00;;;;;;5050908;28;20193;-75
2021/09/23 10:53:56;;;;;;;4.18;3.78;;;19.60;64.00;;;;;;5052880;28;20254;-73
2021/09/23 10:56:22;;;;;;;6.90;3.83;;;19.60;64.10;;;;;;5051894;28;20262;-66
2021/09/23 10:58:50;;;;;;;5.00;3.75;;;19.60;64.20;;;;;;5052793;28;20262;-70
2021/09/23 11:01:23;;;;;;;4.13;3.38;;;19.60;64.00;;;;;;5052753;28;20537;-72
2021/09/23 11:03:48;;;;;;;4.50;3.28;;;19.50;64.00;;;;;;5051433;28;20209;-76
2021/09/23 11:06:14;;;;;;;3.53;3.20;;;19.50;64.10;;;;;;5052350;28;20215;-75
2021/09/23 11:08:41;;;;;;;3.97;3.00;;;19.50;64.10;;;;;;5034846;28;20167;-71
2021/09/23 11:11:08;;;;;;;3.88;3.00;;;19.60;64.10;;;;;;5051581;28;20580;-72
2021/09/23 11:13:35;;;;;;;3.72;3.42;;;19.60;64.00;;;;;;5052420;28;20231;-73
2021/09/23 11:16:03;;;;;;;6.13;3.50;;;19.60;63.90;;;;;;5052393;28;20310;-73
2021/09/23 11:18:29;;;;;;;3.95;3.40;;;19.60;64.00;;;;;;5051900;28;20179;-76
2021/09/23 11:20:54;;;;;;;6.65;3.40;;;19.60;64.00;;;;;;5034494;28;20250;-77
2021/09/23 11:23:20;;;;;;;4.78;3.42;;;19.60;64.00;;;;;;5051362;28;20239;-76
2021/09/23 11:25:48;;;;;;;3.47;3.20;;;19.60;64.00;;;;;;5033815;28;20195;-79
2021/09/23 11:28:14;;;;;;;4.70;3.53;;;19.60;64.00;;;;;;5051438;28;20182;-73
2021/09/23 11:30:40;;;;;;;3.13;2.88;;;19.60;63.90;;;;;;5052402;28;20175;-67
2021/09/23 11:33:09;;;;;;;3.65;3.20;;;19.70;64.00;;;;;;5051506;28;20187;-61
2021/09/23 11:35:39;;;;;;;4.63;3.60;;;19.60;64.00;;;;;;5052620;28;20202;-73
2021/09/23 11:38:05;;;;;;;4.05;3.65;;;19.60;63.90;;;;;;5052063;28;20182;-75
2021/09/23 11:40:38;;;;;;;4.10;3.70;;;19.60;63.90;;;;;;5051859;28;20171;-75
2021/09/23 11:43:06;;;;;;;5.13;3.28;;;19.70;63.80;;;;;;5052325;28;20195;-79
2021/09/23 11:45:33;;;;;;;3.20;2.90;;;19.70;63.80;;;;;;5051746;28;20203;-76
2021/09/23 11:48:07;;;;;;;3.13;2.83;;;19.70;63.80;;;;;;5052285;28;20576;-74
2021/09/23 11:50:38;;;;;;;3.92;2.90;;;19.70;63.70;;;;;;5052351;28;20182;-69
2021/09/23 11:53:08;;;;;;;4.63;3.15;;;19.80;63.70;;;;;;5051485;28;20232;-65
2021/09/23 11:55:35;;;;;;;5.38;3.20;;;19.80;63.60;;;;;;5052380;28;20270;-67
2021/09/23 11:58:05;;;;;;;5.32;3.10;;;19.90;63.30;;;;;;5052137;28;20187;-69
2021/09/23 12:00:32;;;;;;;4.68;2.80;;;20.00;63.20;;;;;;5051373;28;20685;-69
2021/09/23 12:02:58;;;;;;;3.63;2.90;;;20.10;62.90;;;;;;5051824;28;20618;-69
2021/09/23 12:05:28;;;;;;;4.18;3.08;;;20.10;62.90;;;;;;5052170;28;20203;-60
2021/09/23 12:07:54;;;;;;;3.05;2.65;;;20.20;62.90;;;;;;5051891;28;20179;-63
2021/09/23 12:10:21;;;;;;;3.65;2.88;;;20.20;62.70;;;;;;5056529;28;20179;-64
2021/09/23 12:12:56;;;;;;;4.65;2.90;;;20.20;62.70;;;;;;5051876;28;20215;-64
2021/09/23 12:15:22;;;;;;;3.90;3.17;;;20.20;62.70;;;;;;5052089;28;20174;-64
2021/09/23 12:17:55;;;;;;;3.40;3.10;;;20.20;62.90;;;;;;5055236;28;20175;-65
2021/09/23 12:20:20;;;;;;;5.07;2.83;;;20.20;63.00;;;;;;5055653;28;20212;-63
2021/09/23 12:22:46;;;;;;;4.47;3.17;;;20.20;63.00;;;;;;5053896;28;20588;-63
2021/09/23 12:25:15;;;;;;;4.10;2.78;;;20.20;63.00;;;;;;5055030;28;20784;-63
2021/09/23 12:27:41;;;;;;;3.05;2.75;;;20.20;63.00;;;;;;5054815;28;20258;-62
2021/09/23 12:30:07;;;;;;;3.72;3.03;;;20.20;63.10;;;;;;5053854;28;20167;-62
2021/09/23 12:32:34;;;;;;;3.20;3.00;;;20.20;62.90;;;;;;5055441;28;20179;-61
2021/09/23 12:35:16;;;;;;;3.20;2.90;;;20.30;63.00;;;;;;5054259;28;21047;-62
2021/09/23 12:37:42;;;;;;;4.20;3.08;;;20.20;62.90;;;;;;5054210;28;20467;-63
2021/09/23 12:40:08;;;;;;;3.30;3.00;;;20.20;63.00;;;;;;5054959;28;20195;-63
2021/09/23 12:42:34;;;;;;;4.75;2.95;;;20.10;62.90;;;;;;5054526;28;20179;-64